Time;durP1;ratioP1;P1;durP2;ratioP2;P2;SDS_P1;SDS_P2;PMS_P1;PMS_P2;Temp;Humidity;BMP_temperature;BMP_pressure;BME280_temperature;BME280_humidity;BME280_pressure;Samples;Min_cycle;Max_cycle;Signal;HPM_P1;HPM_P2
2022/11/28 00:00:07;;;;;;;7.15;5.22;;;;;;;;;;5009825;28;20434;-79
2022/11/28 00:02:40;;;;;;;8.00;5.60;;;;;;;;;;4972400;28;20477;-78
2022/11/28 00:05:10;;;;;;;6.38;5.75;;;;;;;;;;5002382;28;20423;-78
2022/11/28 00:07:36;;;;;;;4.60;4.20;;;;;;;;;;5018047;28;20026;-78
2022/11/28 00:10:02;;;;;;;7.38;4.93;;;;;;;;;;5016076;28;20951;-78
2022/11/28 00:12:33;;;;;;;5.97;5.38;;;;;;;;;;4999657;28;20033;-78
2022/11/28 00:15:02;;;;;;;6.80;6.18;;;;;;;;;;5014113;28;20368;-78
2022/11/28 00:17:31;;;;;;;5.45;4.60;;;;;;;;;;5005841;28;20036;-78
2022/11/28 00:19:59;;;;;;;6.40;4.65;;;;;;;;;;4995108;28;20040;-78
2022/11/28 00:22:28;;;;;;;6.05;4.72;;;;;;;;;;5009772;28;20041;-78
2022/11/28 00:24:56;;;;;;;7.50;6.40;;;;;;;;;;5012948;28;20041;-78
2022/11/28 00:27:24;;;;;;;7.03;5.03;;;;;;;;;;4991791;28;20033;-78
2022/11/28 00:29:55;;;;;;;6.38;5.18;;;;;;;;;;4996541;28;20032;-78
2022/11/28 00:32:21;;;;;;;6.95;5.13;;;;;;;;;;5012682;28;20376;-78
2022/11/28 00:34:47;;;;;;;7.35;6.15;;;;;;;;;;5013373;28;20085;-78
2022/11/28 00:37:13;;;;;;;6.68;5.50;;;;;;;;;;4997542;28;20543;-79
2022/11/28 00:39:39;;;;;;;6.90;5.03;;;;;;;;;;4984711;28;20034;-78
2022/11/28 00:42:09;;;;;;;5.80;4.57;;;;;;;;;;4990051;28;20034;-79
2022/11/28 00:44:35;;;;;;;6.30;5.38;;;;;;;;;;4993842;28;20507;-78
2022/11/28 00:47:03;;;;;;;6.93;4.70;;;;;;;;;;4990304;28;20496;-78
2022/11/28 00:49:29;;;;;;;7.85;5.25;;;;;;;;;;5021371;28;20109;-78
2022/11/28 00:51:55;;;;;;;6.82;6.07;;;;;;;;;;5005821;28;20048;-79
2022/11/28 00:54:25;;;;;;;7.93;6.25;;;;;;;;;;5009657;28;20044;-78
2022/11/28 00:56:51;;;;;;;8.20;6.05;;;;;;;;;;4986482;28;20057;-79
2022/11/28 00:59:17;;;;;;;9.23;7.40;;;;;;;;;;5001061;28;20038;-78
2022/11/28 01:01:45;;;;;;;8.85;7.05;;;;;;;;;;5013044;28;20030;-79
2022/11/28 01:04:14;;;;;;;10.13;7.30;;;;;;;;;;5004804;28;20037;-79
2022/11/28 01:06:41;;;;;;;11.25;6.28;;;;;;;;;;4996275;28;20033;-79
2022/11/28 01:09:09;;;;;;;5.88;5.38;;;;;;;;;;5015665;28;20033;-79
2022/11/28 01:11:40;;;;;;;6.20;4.82;;;;;;;;;;5010696;28;20018;-79
2022/11/28 01:14:07;;;;;;;6.15;5.43;;;;;;;;;;5002803;28;20357;-79
2022/11/28 01:16:37;;;;;;;6.05;5.45;;;;;;;;;;5006586;28;20056;-79
2022/11/28 01:19:06;;;;;;;6.38;5.78;;;;;;;;;;4998429;28;20034;-79
2022/11/28 01:21:32;;;;;;;6.45;4.97;;;;;;;;;;4977759;28;20033;-78
2022/11/28 01:24:00;;;;;;;8.82;5.55;;;;;;;;;;5017352;28;20075;-79
2022/11/28 01:26:28;;;;;;;7.72;4.85;;;;;;;;;;5022404;23;20254;-85
2022/11/28 01:28:58;;;;;;;8.45;6.70;;;;;;;;;;4975493;28;20042;-84
2022/11/28 01:31:29;;;;;;;8.50;5.75;;;;;;;;;;5009358;28;20053;-84
2022/11/28 01:33:57;;;;;;;6.07;5.03;;;;;;;;;;4992749;28;20030;-84
2022/11/28 01:36:25;;;;;;;7.30;5.75;;;;;;;;;;5010905;28;20034;-84
2022/11/28 01:38:53;;;;;;;6.75;5.18;;;;;;;;;;5010046;28;20046;-84
2022/11/28 01:41:25;;;;;;;6.85;6.15;;;;;;;;;;4992516;28;20052;-84
2022/11/28 01:43:57;;;;;;;5.10;4.63;;;;;;;;;;5008335;28;20037;-84
2022/11/28 01:46:25;;;;;;;11.52;7.38;;;;;;;;;;5012751;28;20030;-84
2022/11/28 01:48:51;;;;;;;8.30;5.88;;;;;;;;;;5014122;28;20568;-85
2022/11/28 01:51:17;;;;;;;8.85;6.88;;;;;;;;;;5008880;28;20041;-84
2022/11/28 01:53:48;;;;;;;7.70;5.65;;;;;;;;;;5011615;28;20026;-85
2022/11/28 01:56:28;;;;;;;5.50;4.82;;;;;;;;;;5009134;28;20030;-84
2022/11/28 01:59:05;;;;;;;7.57;6.72;;;;;;;;;;5005023;28;20034;-84
2022/11/28 02:01:33;;;;;;;7.95;6.38;;;;;;;;;;5004789;28;20037;-85
2022/11/28 02:03:59;;;;;;;8.20;6.53;;;;;;;;;;5011530;28;20383;-84
2022/11/28 02:06:28;;;;;;;7.35;5.70;;;;;;;;;;4990560;28;20053;-84
2022/11/28 02:08:58;;;;;;;7.80;5.68;;;;;;;;;;5026145;28;20499;-84
2022/11/28 02:11:31;;;;;;;8.70;6.30;;;;;;;;;;5011893;28;20033;-85
2022/11/28 02:14:03;;;;;;;9.63;6.18;;;;;;;;;;4993704;28;20496;-84
2022/11/28 02:16:32;;;;;;;8.10;5.60;;;;;;;;;;4957970;28;20030;-85
2022/11/28 02:19:02;;;;;;;;;;;;;;;;;;4988650;28;20558;-85
2022/11/28 02:21:34;;;;;;;17.15;7.57;;;;;;;;;;5013471;28;20003;-84
2022/11/28 02:24:18;;;;;;;8.13;6.85;;;;;;;;;;4991363;28;20033;-84
2022/11/28 02:26:52;;;;;;;8.45;5.43;;;;;;;;;;4985274;28;20040;-84
2022/11/28 02:29:39;;;;;;;11.05;7.30;;;;;;;;;;5013188;28;20399;-84
2022/11/28 02:32:08;;;;;;;16.83;7.18;;;;;;;;;;4989179;28;20041;-84
2022/11/28 02:34:39;;;;;;;8.68;6.13;;;;;;;;;;5011229;28;20384;-84
2022/11/28 02:37:10;;;;;;;8.45;6.35;;;;;;;;;;4990143;28;20034;-84
2022/11/28 02:39:41;;;;;;;9.80;6.68;;;;;;;;;;5007996;28;20480;-84
2022/11/28 02:42:24;;;;;;;9.20;8.02;;;;;;;;;;4996868;28;20030;-84
2022/11/28 02:45:02;;;;;;;10.38;8.63;;;;;;;;;;5012388;28;20045;-84
2022/11/28 02:47:34;;;;;;;8.95;7.35;;;;;;;;;;4977846;28;20037;-85
2022/11/28 02:50:10;;;;;;;10.32;8.60;;;;;;;;;;5007491;28;20036;-84
2022/11/28 02:52:54;;;;;;;8.55;5.13;;;;;;;;;;4991230;28;20026;-84
2022/11/28 02:55:23;;;;;;;7.40;5.40;;;;;;;;;;5013090;28;20034;-84
2022/11/28 02:57:52;;;;;;;8.27;6.10;;;;;;;;;;4991279;28;20780;-84
2022/11/28 03:00:25;;;;;;;10.75;6.32;;;;;;;;;;4999241;28;20037;-84
2022/11/28 03:03:11;;;;;;;9.70;5.93;;;;;;;;;;5018026;28;20029;-84
2022/11/28 03:05:50;;;;;;;8.77;7.85;;;;;;;;;;5010230;28;20068;-85
2022/11/28 03:08:33;;;;;;;11.30;7.63;;;;;;;;;;4975440;28;20514;-84
2022/11/28 03:11:10;;;;;;;11.43;8.65;;;;;;;;;;4994568;28;20038;-84
2022/11/28 03:13:41;;;;;;;8.45;7.30;;;;;;;;;;5003721;28;20026;-84
2022/11/28 03:16:21;;;;;;;11.30;7.32;;;;;;;;;;5006771;28;20053;-84
2022/11/28 03:18:50;;;;;;;16.52;8.95;;;;;;;;;;4992769;28;20026;-84
2022/11/28 03:21:22;;;;;;;10.95;7.90;;;;;;;;;;4983579;28;20045;-84
2022/11/28 03:23:51;;;;;;;10.13;7.28;;;;;;;;;;5001650;28;20030;-84
2022/11/28 03:26:23;;;;;;;21.90;6.43;;;;;;;;;;5009314;28;20411;-84
2022/11/28 03:29:01;;;;;;;9.25;6.55;;;;;;;;;;4963231;28;20045;-84
2022/11/28 03:31:35;;;;;;;8.20;6.68;;;;;;;;;;5019336;28;20033;-84
2022/11/28 03:34:05;;;;;;;8.48;5.30;;;;;;;;;;5010887;28;20042;-84
2022/11/28 03:36:37;;;;;;;9.40;7.03;;;;;;;;;;4981834;28;20025;-84
2022/11/28 03:39:19;;;;;;;6.90;6.05;;;;;;;;;;5004933;28;20649;-84
2022/11/28 03:41:48;;;;;;;10.68;8.30;;;;;;;;;;5013533;28;20029;-84
2022/11/28 03:44:19;;;;;;;9.23;6.93;;;;;;;;;;4995439;28;20038;-84
2022/11/28 03:46:48;;;;;;;6.95;5.63;;;;;;;;;;5009218;28;20040;-85
2022/11/28 03:49:16;;;;;;;6.75;5.75;;;;;;;;;;5007602;28;20025;-85
2022/11/28 03:51:46;;;;;;;8.35;6.22;;;;;;;;;;5021182;28;20037;-85
2022/11/28 03:54:25;;;;;;;9.05;7.28;;;;;;;;;;5013294;28;20029;-85
2022/11/28 03:57:03;;;;;;;6.15;5.43;;;;;;;;;;5001810;28;20049;-84
2022/11/28 03:59:48;;;;;;;11.23;6.82;;;;;;;;;;4991454;28;20369;-85
2022/11/28 04:02:33;;;;;;;10.93;7.00;;;;;;;;;;4993708;28;20026;-84
2022/11/28 04:05:10;;;;;;;7.20;6.03;;;;;;;;;;5010193;28;20380;-85
2022/11/28 04:07:45;;;;;;;7.63;6.10;;;;;;;;;;4994210;28;20050;-84
2022/11/28 04:10:20;;;;;;;8.63;6.07;;;;;;;;;;5007215;28;20037;-85
2022/11/28 04:12:48;;;;;;;7.70;6.00;;;;;;;;;;5014566;28;20030;-84
2022/11/28 04:15:36;;;;;;;6.45;5.72;;;;;;;;;;4992980;28;20045;-83
2022/11/28 04:18:07;;;;;;;7.28;6.40;;;;;;;;;;5003283;28;20030;-84
2022/11/28 04:20:48;;;;;;;6.63;5.78;;;;;;;;;;4992217;28;20415;-83
2022/11/28 04:23:19;;;;;;;9.50;6.53;;;;;;;;;;5011137;28;20028;-83
2022/11/28 04:26:14;;;;;;;7.43;6.70;;;;;;;;;;4987666;28;20492;-83
2022/11/28 04:28:43;;;;;;;9.32;7.20;;;;;;;;;;4991241;28;20404;-83
2022/11/28 04:31:14;;;;;;;7.97;5.63;;;;;;;;;;4990209;28;20038;-83
2022/11/28 04:33:44;;;;;;;9.75;7.30;;;;;;;;;;5005098;28;20511;-83
2022/11/28 04:36:16;;;;;;;11.68;7.78;;;;;;;;;;5006616;28;20030;-83
2022/11/28 04:38:47;;;;;;;9.00;8.13;;;;;;;;;;5009919;28;20030;-83
2022/11/28 04:41:19;;;;;;;11.82;7.82;;;;;;;;;;5009240;28;20384;-82
2022/11/28 04:43:56;;;;;;;9.80;8.13;;;;;;;;;;5017325;28;20030;-83
2022/11/28 04:46:27;;;;;;;8.18;6.68;;;;;;;;;;4994829;28;20038;-83
2022/11/28 04:48:53;;;;;;;9.70;7.22;;;;;;;;;;4999655;28;20026;-83
2022/11/28 04:51:39;;;;;;;6.95;5.75;;;;;;;;;;5008209;28;20072;-83
2022/11/28 04:54:17;;;;;;;7.78;6.07;;;;;;;;;;5000711;28;20034;-83
2022/11/28 04:56:48;;;;;;;8.68;6.47;;;;;;;;;;5009349;28;20043;-83
2022/11/28 04:59:21;;;;;;;7.65;6.80;;;;;;;;;;5021609;28;20034;-84
2022/11/28 05:01:49;;;;;;;8.60;6.70;;;;;;;;;;5007895;28;20516;-83
2022/11/28 05:04:17;;;;;;;8.13;6.43;;;;;;;;;;5009584;28;20431;-83
2022/11/28 05:06:44;;;;;;;16.73;8.45;;;;;;;;;;4985354;28;20056;-83
2022/11/28 05:09:12;;;;;;;12.82;11.50;;;;;;;;;;4986108;28;20329;-83
2022/11/28 05:11:41;;;;;;;10.48;9.55;;;;;;;;;;4990824;28;20025;-83
2022/11/28 05:14:09;;;;;;;11.63;10.43;;;;;;;;;;4994042;28;20041;-83
2022/11/28 05:16:35;;;;;;;9.93;8.95;;;;;;;;;;5015024;28;20058;-83
2022/11/28 05:19:05;;;;;;;10.10;8.18;;;;;;;;;;5012597;28;20037;-83
2022/11/28 05:21:35;;;;;;;10.77;7.35;;;;;;;;;;4999139;28;20035;-84
2022/11/28 05:24:06;;;;;;;10.75;9.35;;;;;;;;;;5016311;28;20034;-84
2022/11/28 05:26:37;;;;;;;9.15;6.97;;;;;;;;;;4997847;28;20404;-87
2022/11/28 05:29:03;;;;;;;7.80;6.70;;;;;;;;;;4991919;28;20042;-86
2022/11/28 05:31:34;;;;;;;10.60;8.27;;;;;;;;;;5019670;28;20365;-87
2022/11/28 05:34:04;;;;;;;7.32;6.57;;;;;;;;;;4993338;28;20038;-85
2022/11/28 05:36:30;;;;;;;7.40;5.40;;;;;;;;;;5011604;28;20034;-85
2022/11/28 05:38:58;;;;;;;11.57;8.85;;;;;;;;;;4976375;28;20030;-85
2022/11/28 05:41:30;;;;;;;12.52;9.43;;;;;;;;;;5006193;28;20029;-86
2022/11/28 05:43:57;;;;;;;12.63;7.65;;;;;;;;;;4994796;28;20033;-85
2022/11/28 05:46:23;;;;;;;12.27;8.05;;;;;;;;;;5008432;28;20037;-86
2022/11/28 05:48:52;;;;;;;25.17;9.27;;;;;;;;;;5011923;28;20025;-87
2022/11/28 05:51:17;;;;;;;9.18;7.20;;;;;;;;;;5010126;28;20042;-86
2022/11/28 05:53:46;;;;;;;11.25;7.30;;;;;;;;;;5023831;28;20033;-86
2022/11/28 05:56:15;;;;;;;9.90;8.90;;;;;;;;;;4997775;28;20035;-85
2022/11/28 05:58:41;;;;;;;9.30;7.60;;;;;;;;;;5009153;28;20101;-85
2022/11/28 06:01:07;;;;;;;13.00;9.65;;;;;;;;;;4985492;28;20487;-84
2022/11/28 06:03:36;;;;;;;9.98;8.85;;;;;;;;;;4996190;28;20542;-85
2022/11/28 06:06:10;;;;;;;11.23;8.82;;;;;;;;;;4999465;28;20045;-84
2022/11/28 06:08:41;;;;;;;11.50;10.18;;;;;;;;;;4998776;28;20037;-85
2022/11/28 06:11:17;;;;;;;10.25;7.97;;;;;;;;;;5006807;28;20038;-84
2022/11/28 06:13:46;;;;;;;13.48;8.52;;;;;;;;;;5003414;28;20042;-84
2022/11/28 06:16:14;;;;;;;16.48;12.55;;;;;;;;;;5004028;28;20025;-84
2022/11/28 06:18:40;;;;;;;15.38;10.20;;;;;;;;;;5016380;28;20508;-84
2022/11/28 06:21:09;;;;;;;15.43;9.82;;;;;;;;;;4997610;28;20041;-84
2022/11/28 06:23:39;;;;;;;14.15;10.82;;;;;;;;;;5018775;28;20056;-84
2022/11/28 06:26:09;;;;;;;12.18;9.25;;;;;;;;;;5005807;28;20049;-82
2022/11/28 06:28:40;;;;;;;11.55;9.82;;;;;;;;;;5008691;28;20034;-84
2022/11/28 06:31:09;;;;;;;12.35;8.82;;;;;;;;;;4974460;28;20030;-84
2022/11/28 06:33:37;;;;;;;12.65;8.25;;;;;;;;;;4979481;28;20045;-84
2022/11/28 06:36:06;;;;;;;10.35;8.85;;;;;;;;;;5000019;28;20025;-84
2022/11/28 06:38:34;;;;;;;10.52;8.48;;;;;;;;;;4982373;28;20038;-84
2022/11/28 06:41:04;;;;;;;18.77;9.00;;;;;;;;;;4998731;28;20049;-84
2022/11/28 06:43:33;;;;;;;11.38;7.97;;;;;;;;;;4989730;28;20079;-84
2022/11/28 06:46:01;;;;;;;10.40;7.35;;;;;;;;;;4999424;28;20029;-83
2022/11/28 06:48:27;;;;;;;8.65;7.70;;;;;;;;;;4999364;28;20846;-84
2022/11/28 06:51:03;;;;;;;11.00;7.90;;;;;;;;;;4986778;28;20061;-84
2022/11/28 06:53:34;;;;;;;11.52;9.35;;;;;;;;;;5003156;28;20029;-84
2022/11/28 07:22:05;;;;;;;9.82;7.63;;;;;;;;;;4990400;28;20512;-84
2022/11/28 07:24:30;;;;;;;8.90;6.60;;;;;;;;;;4958086;28;20055;-84
2022/11/28 07:27:01;;;;;;;9.85;7.70;;;;;;;;;;5024030;23;20057;-78
2022/11/28 07:29:34;;;;;;;9.02;6.90;;;;;;;;;;5012517;28;20033;-79
2022/11/28 07:32:06;;;;;;;9.38;6.25;;;;;;;;;;4996570;28;20403;-79
2022/11/28 07:34:36;;;;;;;10.18;7.95;;;;;;;;;;5023632;28;20037;-79
2022/11/28 07:37:05;;;;;;;10.35;8.23;;;;;;;;;;5025647;28;20033;-79
2022/11/28 07:39:33;;;;;;;9.55;7.57;;;;;;;;;;4994754;28;20025;-79
2022/11/28 07:41:59;;;;;;;9.18;7.93;;;;;;;;;;5023984;28;20030;-79
2022/11/28 07:44:27;;;;;;;15.30;9.27;;;;;;;;;;5008603;28;20566;-78
2022/11/28 07:46:55;;;;;;;18.60;12.95;;;;;;;;;;5014951;28;20041;-79
2022/11/28 07:49:24;;;;;;;13.68;10.77;;;;;;;;;;5019617;28;20719;-79
2022/11/28 07:51:52;;;;;;;10.80;7.43;;;;;;;;;;5017368;28;20087;-79
2022/11/28 07:54:20;;;;;;;8.77;7.10;;;;;;;;;;5016291;28;20034;-79
2022/11/28 07:56:51;;;;;;;10.68;8.85;;;;;;;;;;5001897;28;20033;-79
2022/11/28 07:59:19;;;;;;;10.10;8.40;;;;;;;;;;5014810;28;20038;-79
2022/11/28 08:01:45;;;;;;;10.70;8.98;;;;;;;;;;4981302;28;20033;-79
2022/11/28 08:04:15;;;;;;;15.00;13.23;;;;;;;;;;5020835;28;20038;-79
2022/11/28 08:06:43;;;;;;;14.45;10.93;;;;;;;;;;4997147;28;20029;-79
2022/11/28 08:09:10;;;;;;;17.00;12.02;;;;;;;;;;5019561;28;20664;-79
2022/11/28 08:11:39;;;;;;;12.18;9.40;;;;;;;;;;5015735;28;20036;-79
2022/11/28 08:14:08;;;;;;;9.80;8.52;;;;;;;;;;4982209;28;20038;-79
2022/11/28 08:16:35;;;;;;;12.75;9.77;;;;;;;;;;4982548;28;20033;-79
2022/11/28 08:19:01;;;;;;;10.80;8.02;;;;;;;;;;5021135;28;20470;-79
2022/11/28 08:21:28;;;;;;;10.30;8.15;;;;;;;;;;4998502;28;20041;-79
2022/11/28 08:24:00;;;;;;;11.25;8.20;;;;;;;;;;5016042;28;20041;-79
2022/11/28 08:26:28;;;;;;;10.10;8.05;;;;;;;;;;5015832;28;20044;-79
2022/11/28 08:28:54;;;;;;;15.02;11.27;;;;;;;;;;4996966;28;20471;-79
2022/11/28 08:31:20;;;;;;;10.55;9.43;;;;;;;;;;4999859;28;20078;-79
2022/11/28 08:33:49;;;;;;;11.23;8.73;;;;;;;;;;5002635;28;20037;-79
2022/11/28 08:36:18;;;;;;;12.25;8.13;;;;;;;;;;5004196;28;20033;-78
2022/11/28 08:38:47;;;;;;;9.95;8.10;;;;;;;;;;5005700;28;20025;-79
2022/11/28 08:41:14;;;;;;;12.32;9.20;;;;;;;;;;5022253;28;20369;-79
2022/11/28 08:43:42;;;;;;;11.25;8.38;;;;;;;;;;5024476;28;20021;-79
2022/11/28 08:46:09;;;;;;;8.32;7.45;;;;;;;;;;5019918;28;20037;-79
2022/11/28 08:48:39;;;;;;;9.38;7.90;;;;;;;;;;5013629;28;20033;-78
2022/11/28 08:51:08;;;;;;;11.35;8.55;;;;;;;;;;5011928;28;20028;-79
2022/11/28 08:53:34;;;;;;;9.70;7.43;;;;;;;;;;4988473;28;20033;-78
2022/11/28 08:56:00;;;;;;;11.15;9.02;;;;;;;;;;5025850;28;20036;-79
2022/11/28 08:58:26;;;;;;;11.27;6.85;;;;;;;;;;5028172;28;20386;-79
2022/11/28 09:00:57;;;;;;;8.63;6.85;;;;;;;;;;5025375;28;20038;-78
2022/11/28 09:03:23;;;;;;;8.27;7.40;;;;;;;;;;5002532;28;20034;-79
2022/11/28 09:05:52;;;;;;;8.98;7.75;;;;;;;;;;5011469;28;20029;-79
2022/11/28 09:08:20;;;;;;;10.70;7.93;;;;;;;;;;5012466;28;20050;-78
2022/11/28 09:10:46;;;;;;;10.02;8.60;;;;;;;;;;5000707;28;20033;-79
2022/11/28 09:13:13;;;;;;;8.38;7.55;;;;;;;;;;5017842;28;20366;-78
2022/11/28 09:15:47;;;;;;;7.93;5.68;;;;;;;;;;5011404;28;20040;-79
2022/11/28 09:18:13;;;;;;;8.27;6.30;;;;;;;;;;5038350;28;20042;-79
2022/11/28 09:20:40;;;;;;;7.65;5.63;;;;;;;;;;5018549;28;20033;-79
2022/11/28 09:23:08;;;;;;;8.23;6.55;;;;;;;;;;5008210;28;20044;-79
2022/11/28 09:25:34;;;;;;;8.05;6.38;;;;;;;;;;5004844;28;20025;-79
2022/11/28 09:28:03;;;;;;;7.47;5.80;;;;;;;;;;5025028;28;20033;-78
2022/11/28 09:30:31;;;;;;;6.70;6.00;;;;;;;;;;4994100;28;20041;-79
2022/11/28 09:33:00;;;;;;;11.25;9.15;;;;;;;;;;5008416;28;20046;-79
2022/11/28 09:35:26;;;;;;;10.27;6.50;;;;;;;;;;4992657;28;20030;-79
2022/11/28 09:37:52;;;;;;;9.48;6.38;;;;;;;;;;5039257;28;20033;-79
2022/11/28 09:40:32;;;;;;;9.35;8.02;;;;;;;;;;5035871;28;20099;-79
2022/11/28 09:42:59;;;;;;;9.32;7.25;;;;;;;;;;5018335;28;20041;-79
2022/11/28 09:45:26;;;;;;;11.43;7.85;;;;;;;;;;5017838;28;20037;-79
2022/11/28 09:48:01;;;;;;;9.00;7.40;;;;;;;;;;5010398;28;20040;-79
2022/11/28 09:50:31;;;;;;;8.85;7.75;;;;;;;;;;5025257;28;20033;-79
2022/11/28 09:53:20;;;;;;;11.00;7.68;;;;;;;;;;5025470;28;20034;-79
2022/11/28 09:55:55;;;;;;;9.68;6.95;;;;;;;;;;5027061;28;20052;-79
2022/11/28 09:58:38;;;;;;;8.82;7.65;;;;;;;;;;5038219;28;20029;-79
2022/11/28 10:01:22;;;;;;;9.95;7.65;;;;;;;;;;5006126;28;20034;-79
2022/11/28 10:04:03;;;;;;;10.48;7.90;;;;;;;;;;5031282;28;20033;-79
2022/11/28 10:06:42;;;;;;;12.40;8.25;;;;;;;;;;5024895;28;20036;-78
2022/11/28 10:09:14;;;;;;;10.00;8.73;;;;;;;;;;5023684;28;20040;-79
2022/11/28 10:11:46;;;;;;;10.43;7.30;;;;;;;;;;5014643;28;20029;-80
2022/11/28 10:14:26;;;;;;;11.57;8.63;;;;;;;;;;4979542;28;20037;-80
2022/11/28 10:17:03;;;;;;;31.73;19.48;;;;;;;;;;5025977;28;20030;-79
2022/11/28 10:19:38;;;;;;;21.92;14.18;;;;;;;;;;5033672;28;20030;-80
2022/11/28 10:22:10;;;;;;;16.60;13.52;;;;;;;;;;5029570;28;20038;-79
2022/11/28 10:24:38;;;;;;;14.07;11.05;;;;;;;;;;5025959;28;20056;-80
2022/11/28 10:27:13;;;;;;;14.63;10.95;;;;;;;;;;5010759;28;20044;-80
2022/11/28 10:29:41;;;;;;;12.50;9.45;;;;;;;;;;5031791;28;20032;-79
2022/11/28 10:32:18;;;;;;;13.43;11.02;;;;;;;;;;5030839;28;20029;-79
2022/11/28 10:34:59;;;;;;;12.90;8.45;;;;;;;;;;5026470;28;20029;-83
2022/11/28 10:37:25;;;;;;;11.07;9.10;;;;;;;;;;5009240;28;20028;-83
2022/11/28 10:39:51;;;;;;;11.38;8.82;;;;;;;;;;5026141;28;20034;-80
2022/11/28 10:42:38;;;;;;;12.82;10.20;;;;;;;;;;4993941;28;20022;-80
2022/11/28 10:45:11;;;;;;;12.27;8.37;;;;;;;;;;5008831;28;20036;-80
2022/11/28 10:47:51;;;;;;;11.88;10.07;;;;;;;;;;5025011;28;20031;-80
2022/11/28 10:50:26;;;;;;;10.77;9.60;;;;;;;;;;4985917;28;20045;-80
2022/11/28 10:53:31;;;;;;;12.00;10.73;;;;;;;;;;4994808;28;20045;-80
2022/11/28 10:56:18;;;;;;;14.70;12.40;;;;;;;;;;5017253;28;20049;-80
2022/11/28 10:58:47;;;;;;;14.75;10.63;;;;;;;;;;5029189;28;20032;-80
2022/11/28 11:01:13;;;;;;;16.08;10.85;;;;;;;;;;5009926;28;20040;-82
2022/11/28 11:03:41;;;;;;;12.73;10.15;;;;;;;;;;5014074;28;20033;-82
2022/11/28 11:06:07;;;;;;;10.88;9.77;;;;;;;;;;4982061;28;20052;-82
2022/11/28 11:08:36;;;;;;;15.27;9.52;;;;;;;;;;4984634;28;20046;-82
2022/11/28 11:11:08;;;;;;;13.88;10.23;;;;;;;;;;4982246;28;20033;-82
2022/11/28 11:13:55;;;;;;;15.18;12.88;;;;;;;;;;5004834;28;20030;-82
2022/11/28 11:16:23;;;;;;;15.55;10.25;;;;;;;;;;5002253;28;20044;-82
2022/11/28 11:18:53;;;;;;;16.80;11.82;;;;;;;;;;5002331;28;20039;-81
2022/11/28 11:21:19;;;;;;;17.38;11.35;;;;;;;;;;4998881;28;20037;-81
2022/11/28 11:23:45;;;;;;;15.95;10.98;;;;;;;;;;5026514;28;20418;-81
2022/11/28 11:26:31;;;;;;;15.55;12.65;;;;;;;;;;4997717;28;20049;-82
2022/11/28 11:29:01;;;;;;;13.95;11.93;;;;;;;;;;4989183;28;20048;-82
2022/11/28 11:31:30;;;;;;;18.20;12.95;;;;;;;;;;4999556;28;20488;-82
2022/11/28 11:34:00;;;;;;;14.75;10.70;;;;;;;;;;5018872;28;20033;-82
2022/11/28 11:36:33;;;;;;;15.10;13.35;;;;;;;;;;5019187;28;20029;-82
2022/11/28 11:39:05;;;;;;;13.00;8.57;;;;;;;;;;5019616;28;20471;-82
2022/11/28 11:41:31;;;;;;;12.10;8.70;;;;;;;;;;4997712;28;20044;-82
2022/11/28 11:44:19;;;;;;;13.57;10.70;;;;;;;;;;5024748;28;20045;-82
2022/11/28 11:46:52;;;;;;;11.02;9.43;;;;;;;;;;5004485;28;20471;-82
2022/11/28 11:49:33;;;;;;;10.60;8.75;;;;;;;;;;4999767;28;20025;-81
2022/11/28 11:52:08;;;;;;;12.30;8.95;;;;;;;;;;4998751;28;20042;-82
2022/11/28 11:54:38;;;;;;;14.20;9.20;;;;;;;;;;5017405;28;22183;-82
2022/11/28 11:57:05;;;;;;;16.73;11.60;;;;;;;;;;4981161;28;20036;-82
2022/11/28 11:59:44;;;;;;;14.02;10.25;;;;;;;;;;5017516;28;20026;-81
2022/11/28 12:02:18;;;;;;;12.10;10.90;;;;;;;;;;4996174;28;20037;-82
2022/11/28 12:04:47;;;;;;;12.02;10.65;;;;;;;;;;5032866;28;20040;-81
2022/11/28 12:07:38;;;;;;;11.80;9.50;;;;;;;;;;5023910;28;20052;-82
2022/11/28 12:10:06;;;;;;;14.40;11.55;;;;;;;;;;4980471;28;20042;-82
2022/11/28 12:12:37;;;;;;;12.95;10.73;;;;;;;;;;5025079;28;20036;-82
2022/11/28 12:15:05;;;;;;;;;;;;;;;;;;5017621;28;20025;-82
2022/11/28 12:17:40;;;;;;;12.48;10.32;;;;;;;;;;5012024;28;19913;-82
2022/11/28 12:20:20;;;;;;;13.13;10.18;;;;;;;;;;4992908;28;20412;-82
2022/11/28 12:23:07;;;;;;;12.82;9.52;;;;;;;;;;4972425;28;20027;-82
2022/11/28 12:25:41;;;;;;;14.48;11.10;;;;;;;;;;5007387;28;20041;-82
2022/11/28 12:28:26;;;;;;;17.05;12.07;;;;;;;;;;5003533;28;20026;-82
2022/11/28 12:31:12;;;;;;;12.40;10.45;;;;;;;;;;5002508;28;20039;-81
2022/11/28 12:33:42;;;;;;;12.35;9.82;;;;;;;;;;4967330;28;20054;-81
2022/11/28 12:36:08;;;;;;;12.52;11.20;;;;;;;;;;4991949;28;20031;-82
2022/11/28 12:38:53;;;;;;;13.48;10.32;;;;;;;;;;4981686;28;20026;-82
2022/11/28 12:41:25;;;;;;;12.60;9.60;;;;;;;;;;5002242;28;20033;-82
2022/11/28 12:44:12;;;;;;;15.73;12.40;;;;;;;;;;5001312;28;20042;-82
2022/11/28 12:46:49;;;;;;;13.85;11.73;;;;;;;;;;4986753;28;20407;-82
2022/11/28 12:49:20;;;;;;;12.23;10.93;;;;;;;;;;5009966;28;20038;-82
2022/11/28 12:51:48;;;;;;;13.07;10.45;;;;;;;;;;5008171;28;20030;-83
2022/11/28 12:54:19;;;;;;;11.13;10.07;;;;;;;;;;5004331;28;20529;-83
2022/11/28 12:56:52;;;;;;;12.93;10.30;;;;;;;;;;5003616;28;20027;-83
2022/11/28 12:59:35;;;;;;;12.73;9.43;;;;;;;;;;4989672;28;20038;-83
2022/11/28 13:02:33;;;;;;;14.23;10.05;;;;;;;;;;4990033;28;20042;-83
2022/11/28 13:05:17;;;;;;;15.50;10.02;;;;;;;;;;4994593;28;20052;-81
2022/11/28 13:08:04;;;;;;;13.07;11.43;;;;;;;;;;5001026;28;20033;-82
2022/11/28 13:10:48;;;;;;;13.73;10.40;;;;;;;;;;4993526;28;20053;-82
2022/11/28 13:13:21;;;;;;;12.02;10.07;;;;;;;;;;4985469;28;20034;-82
2022/11/28 13:15:47;;;;;;;14.63;11.07;;;;;;;;;;5002577;28;20036;-82
2022/11/28 13:18:25;;;;;;;15.60;11.95;;;;;;;;;;4982055;28;20030;-82
2022/11/28 13:21:01;;;;;;;15.95;12.77;;;;;;;;;;5006643;28;20487;-82
2022/11/28 13:23:33;;;;;;;13.27;11.93;;;;;;;;;;5002594;28;20534;-83
2022/11/28 14:43:53;;;;;;;16.05;10.60;;;;;;;;;;4289899;26;20496;-84
2022/11/28 14:46:29;;;;;;;13.52;10.10;;;;;;;;;;4982898;28;20030;-84
2022/11/28 14:48:59;;;;;;;15.20;12.48;;;;;;;;;;4952967;28;20039;-84
2022/11/28 14:51:46;;;;;;;12.90;10.60;;;;;;;;;;4977068;28;20496;-84
2022/11/28 14:54:23;;;;;;;16.85;11.73;;;;;;;;;;4972802;28;20045;-84
2022/11/28 14:56:50;;;;;;;13.00;11.40;;;;;;;;;;4941935;28;20039;-84
2022/11/28 14:59:16;;;;;;;16.48;11.55;;;;;;;;;;4951341;28;20035;-84
2022/11/28 15:01:54;;;;;;;13.18;10.23;;;;;;;;;;4970985;28;20050;-84
2022/11/28 15:04:39;;;;;;;18.13;10.80;;;;;;;;;;4968049;28;20058;-84
2022/11/28 15:48:33;;;;;;;14.80;9.98;;;;;;;;;;5485500;23;20046;-92
2022/11/28 15:51:03;;;;;;;14.50;11.57;;;;;;;;;;4967655;28;20035;-92
2022/11/28 15:53:38;;;;;;;15.82;11.80;;;;;;;;;;4972152;28;20027;-92
2022/11/28 15:56:12;;;;;;;17.77;10.48;;;;;;;;;;4958627;28;20469;-92
2022/11/28 15:58:38;;;;;;;13.93;11.32;;;;;;;;;;4973068;28;20039;-91
2022/11/28 16:01:14;;;;;;;12.82;10.50;;;;;;;;;;4965759;28;20035;-92
2022/11/28 16:04:00;;;;;;;15.98;10.63;;;;;;;;;;4967581;28;20397;-92
2022/11/28 16:06:28;;;;;;;15.35;12.27;;;;;;;;;;4964921;28;20035;-84
2022/11/28 16:08:55;;;;;;;15.95;12.43;;;;;;;;;;4964731;28;20358;-75
2022/11/28 16:11:26;;;;;;;13.30;10.18;;;;;;;;;;4964277;28;20064;-78
2022/11/28 16:13:57;;;;;;;12.60;11.20;;;;;;;;;;4983534;28;20035;-78
2022/11/28 16:16:34;;;;;;;12.68;11.02;;;;;;;;;;4966160;28;20511;-78
2022/11/28 16:19:02;;;;;;;17.48;14.02;;;;;;;;;;4968951;28;20030;-79
2022/11/28 16:21:35;;;;;;;16.05;13.68;;;;;;;;;;4948852;28;20035;-78
2022/11/28 16:24:16;;;;;;;17.65;11.85;;;;;;;;;;4967849;28;20116;-78
2022/11/28 16:26:51;;;;;;;13.18;11.68;;;;;;;;;;4965463;28;20038;-78
2022/11/28 16:29:23;;;;;;;15.73;13.27;;;;;;;;;;4971657;28;20035;-79
2022/11/28 16:31:51;;;;;;;15.15;12.25;;;;;;;;;;4969718;28;20402;-77
2022/11/28 16:34:37;;;;;;;15.68;11.63;;;;;;;;;;4971958;28;20035;-78
2022/11/28 16:37:08;;;;;;;13.75;12.13;;;;;;;;;;4984417;28;20034;-77
2022/11/28 16:39:38;;;;;;;15.65;11.93;;;;;;;;;;4970660;28;20504;-77
2022/11/28 16:42:15;;;;;;;15.95;12.85;;;;;;;;;;4970433;28;20035;-78
2022/11/28 16:44:41;;;;;;;15.85;12.68;;;;;;;;;;4966327;28;20039;-78
2022/11/28 16:47:23;;;;;;;19.27;13.48;;;;;;;;;;4960680;28;20828;-78
2022/11/28 16:50:07;;;;;;;17.90;12.95;;;;;;;;;;4967979;28;20053;-78
2022/11/28 16:52:54;;;;;;;15.38;12.98;;;;;;;;;;4963666;28;20031;-78
2022/11/28 16:55:26;;;;;;;18.30;13.27;;;;;;;;;;4964265;28;20031;-78
2022/11/28 16:57:54;;;;;;;16.55;12.82;;;;;;;;;;4969762;28;20507;-78
2022/11/28 17:00:23;;;;;;;16.67;14.40;;;;;;;;;;4969817;28;20031;-79
2022/11/28 17:02:51;;;;;;;17.25;12.40;;;;;;;;;;4965946;28;20026;-78
2022/11/28 17:05:17;;;;;;;13.70;11.02;;;;;;;;;;4967763;28;20467;-78
2022/11/28 17:07:43;;;;;;;15.30;12.82;;;;;;;;;;4969714;28;20500;-78
2022/11/28 17:10:12;;;;;;;15.77;12.00;;;;;;;;;;4965123;28;20039;-78
2022/11/28 17:12:41;;;;;;;18.38;13.80;;;;;;;;;;4970439;28;20050;-78
2022/11/28 17:15:13;;;;;;;15.88;13.70;;;;;;;;;;4963445;28;20033;-78
2022/11/28 17:17:43;;;;;;;16.38;12.52;;;;;;;;;;4977855;28;20030;-78
2022/11/28 17:20:11;;;;;;;16.05;13.93;;;;;;;;;;4966006;28;20042;-78
2022/11/28 17:22:42;;;;;;;14.45;12.02;;;;;;;;;;4952866;28;20042;-78